sensor_id;sensor_type;location;lat;lon;timestamp;pressure;altitude;pressure_sealevel;temperature;humidity
70730;BME280;58315;53.336;55.932;2023-03-26T00:01:32;99623.72;;;5.54;64.47
70730;BME280;58315;53.336;55.932;2023-03-26T00:04:02;99621.72;;;5.57;64.72
70730;BME280;58315;53.336;55.932;2023-03-26T00:06:31;99625.47;;;5.15;64.82
70730;BME280;58315;53.336;55.932;2023-03-26T00:09:09;99613.97;;;5.18;65.69
70730;BME280;58315;53.336;55.932;2023-03-26T00:11:37;99628.63;;;5.07;65.42
70730;BME280;58315;53.336;55.932;2023-03-26T00:14:03;99624.53;;;5.03;65.87
70730;BME280;58315;53.336;55.932;2023-03-26T00:16:30;99632.69;;;4.99;65.69
70730;BME280;58315;53.336;55.932;2023-03-26T00:18:57;99630.78;;;5.01;65.90
70730;BME280;58315;53.336;55.932;2023-03-26T00:21:26;99634.47;;;4.98;65.67
70730;BME280;58315;53.336;55.932;2023-03-26T00:24:01;99638.03;;;4.97;66.26
70730;BME280;58315;53.336;55.932;2023-03-26T00:26:30;99635.06;;;4.89;66.37
70730;BME280;58315;53.336;55.932;2023-03-26T00:28:56;99641.56;;;4.83;66.12
70730;BME280;58315;53.336;55.932;2023-03-26T00:31:23;99642.06;;;4.76;66.71
70730;BME280;58315;53.336;55.932;2023-03-26T00:33:50;99644.78;;;4.74;66.75
70730;BME280;58315;53.336;55.932;2023-03-26T00:36:22;99642.56;;;4.68;66.81
70730;BME280;58315;53.336;55.932;2023-03-26T00:38:50;99640.38;;;4.48;66.87
70730;BME280;58315;53.336;55.932;2023-03-26T00:41:18;99650.84;;;4.48;67.15
70730;BME280;58315;53.336;55.932;2023-03-26T00:43:53;99655.09;;;4.63;67.32
70730;BME280;58315;53.336;55.932;2023-03-26T00:46:24;99648.00;;;4.65;66.87
70730;BME280;58315;53.336;55.932;2023-03-26T00:48:50;99646.66;;;4.72;66.83
70730;BME280;58315;53.336;55.932;2023-03-26T00:51:18;99646.94;;;4.68;66.79
70730;BME280;58315;53.336;55.932;2023-03-26T00:53:47;99656.94;;;4.75;66.20
70730;BME280;58315;53.336;55.932;2023-03-26T00:56:13;99647.59;;;4.71;66.86
70730;BME280;58315;53.336;55.932;2023-03-26T00:58:40;99649.47;;;4.69;66.92
70730;BME280;58315;53.336;55.932;2023-03-26T01:01:09;99662.94;;;4.63;67.71
70730;BME280;58315;53.336;55.932;2023-03-26T01:03:36;99662.44;;;4.71;66.89
70730;BME280;58315;53.336;55.932;2023-03-26T01:06:05;99659.56;;;4.75;67.41
70730;BME280;58315;53.336;55.932;2023-03-26T01:08:40;99660.81;;;4.82;66.88
70730;BME280;58315;53.336;55.932;2023-03-26T01:11:22;99663.44;;;4.82;67.09
70730;BME280;58315;53.336;55.932;2023-03-26T01:14:07;99671.50;;;4.79;67.04
70730;BME280;58315;53.336;55.932;2023-03-26T01:16:55;99671.59;;;4.78;67.38
70730;BME280;58315;53.336;55.932;2023-03-26T01:19:28;99677.72;;;4.64;67.39
70730;BME280;58315;53.336;55.932;2023-03-26T01:21:57;99682.75;;;4.67;67.62
70730;BME280;58315;53.336;55.932;2023-03-26T01:24:23;99675.47;;;4.72;67.50
70730;BME280;58315;53.336;55.932;2023-03-26T01:29:29;99672.41;;;4.78;67.04
70730;BME280;58315;53.336;55.932;2023-03-26T01:32:00;99672.97;;;4.83;66.92
70730;BME280;58315;53.336;55.932;2023-03-26T01:39:51;99676.06;;;5.03;67.05
70730;BME280;58315;53.336;55.932;2023-03-26T01:42:55;99673.78;;;5.11;66.71
70730;BME280;58315;53.336;55.932;2023-03-26T01:45:27;99678.88;;;5.00;66.69
70730;BME280;58315;53.336;55.932;2023-03-26T01:47:55;99671.53;;;4.92;66.53
70730;BME280;58315;53.336;55.932;2023-03-26T01:50:22;99667.13;;;4.93;66.84
70730;BME280;58315;53.336;55.932;2023-03-26T01:52:48;99671.47;;;5.06;66.80
70730;BME280;58315;53.336;55.932;2023-03-26T01:55:14;99670.31;;;5.11;66.22
70730;BME280;58315;53.336;55.932;2023-03-26T02:00:30;99670.63;;;5.06;66.13
70730;BME280;58315;53.336;55.932;2023-03-26T02:05:53;99665.31;;;5.20;66.08
70730;BME280;58315;53.336;55.932;2023-03-26T02:08:32;99667.19;;;5.18;66.24
70730;BME280;58315;53.336;55.932;2023-03-26T02:11:06;99659.97;;;5.09;66.24
70730;BME280;58315;53.336;55.932;2023-03-26T02:13:37;99649.69;;;5.06;66.54
70730;BME280;58315;53.336;55.932;2023-03-26T02:16:05;99649.47;;;5.09;66.57
70730;BME280;58315;53.336;55.932;2023-03-26T02:18:32;99647.06;;;5.06;66.37
70730;BME280;58315;53.336;55.932;2023-03-26T02:21:04;99659.00;;;5.10;66.16
70730;BME280;58315;53.336;55.932;2023-03-26T02:23:32;99648.00;;;5.05;66.17
70730;BME280;58315;53.336;55.932;2023-03-26T02:26:08;99644.03;;;5.12;66.38
70730;BME280;58315;53.336;55.932;2023-03-26T02:28:42;99636.47;;;4.95;66.73
70730;BME280;58315;53.336;55.932;2023-03-26T02:31:09;99633.84;;;5.07;66.96
70730;BME280;58315;53.336;55.932;2023-03-26T02:33:36;99634.69;;;5.08;66.99
70730;BME280;58315;53.336;55.932;2023-03-26T02:36:02;99642.25;;;5.13;67.03
70730;BME280;58315;53.336;55.932;2023-03-26T02:38:32;99657.03;;;5.14;66.68
70730;BME280;58315;53.336;55.932;2023-03-26T02:41:01;99647.25;;;5.03;66.82
70730;BME280;58315;53.336;55.932;2023-03-26T02:43:38;99660.25;;;5.04;66.90
70730;BME280;58315;53.336;55.932;2023-03-26T02:46:05;99654.81;;;5.07;67.37
70730;BME280;58315;53.336;55.932;2023-03-26T02:48:49;99659.00;;;5.10;66.76
70730;BME280;58315;53.336;55.932;2023-03-26T02:51:21;99663.28;;;5.11;66.57
70730;BME280;58315;53.336;55.932;2023-03-26T02:54:13;99675.47;;;5.25;66.49
70730;BME280;58315;53.336;55.932;2023-03-26T02:57:00;99669.91;;;5.17;66.60
70730;BME280;58315;53.336;55.932;2023-03-26T02:59:48;99661.75;;;5.08;67.15
70730;BME280;58315;53.336;55.932;2023-03-26T03:02:33;99669.38;;;5.12;67.06
70730;BME280;58315;53.336;55.932;2023-03-26T03:05:13;99670.13;;;5.14;67.07
70730;BME280;58315;53.336;55.932;2023-03-26T03:07:45;99667.31;;;4.90;66.94
70730;BME280;58315;53.336;55.932;2023-03-26T03:10:13;99651.03;;;4.99;67.18
70730;BME280;58315;53.336;55.932;2023-03-26T03:13:11;99658.69;;;5.02;67.01
70730;BME280;58315;53.336;55.932;2023-03-26T03:15:37;99660.16;;;5.06;66.92
70730;BME280;58315;53.336;55.932;2023-03-26T03:18:04;99657.13;;;5.12;67.09
70730;BME280;58315;53.336;55.932;2023-03-26T03:20:31;99661.56;;;5.24;66.77
70730;BME280;58315;53.336;55.932;2023-03-26T03:23:00;99663.03;;;5.28;66.07
70730;BME280;58315;53.336;55.932;2023-03-26T03:25:27;99657.03;;;5.26;66.33
70730;BME280;58315;53.336;55.932;2023-03-26T03:27:53;99665.31;;;5.33;66.54
70730;BME280;58315;53.336;55.932;2023-03-26T03:30:19;99656.63;;;5.32;66.47
70730;BME280;58315;53.336;55.932;2023-03-26T03:32:45;99661.66;;;5.36;65.92
70730;BME280;58315;53.336;55.932;2023-03-26T03:35:15;99664.28;;;5.36;66.45
70730;BME280;58315;53.336;55.932;2023-03-26T03:37:43;99663.25;;;5.51;66.24
70730;BME280;58315;53.336;55.932;2023-03-26T03:40:10;99657.28;;;5.49;65.69
70730;BME280;58315;53.336;55.932;2023-03-26T03:42:38;99654.66;;;5.49;66.06
70730;BME280;58315;53.336;55.932;2023-03-26T03:45:05;99654.94;;;5.44;65.68
70730;BME280;58315;53.336;55.932;2023-03-26T03:48:07;99658.84;;;5.51;65.69
70730;BME280;58315;53.336;55.932;2023-03-26T03:50:43;99654.66;;;5.49;65.86
70730;BME280;58315;53.336;55.932;2023-03-26T03:53:32;99651.91;;;5.25;66.04
70730;BME280;58315;53.336;55.932;2023-03-26T03:56:02;99668.47;;;5.51;66.52
70730;BME280;58315;53.336;55.932;2023-03-26T03:58:49;99670.16;;;5.52;65.92
70730;BME280;58315;53.336;55.932;2023-03-26T04:01:24;99663.44;;;5.48;65.72
70730;BME280;58315;53.336;55.932;2023-03-26T04:03:58;99668.19;;;5.43;66.16
70730;BME280;58315;53.336;55.932;2023-03-26T04:06:37;99659.34;;;5.44;65.99
70730;BME280;58315;53.336;55.932;2023-03-26T04:09:04;99660.75;;;5.49;66.48
70730;BME280;58315;53.336;55.932;2023-03-26T04:11:30;99670.91;;;5.67;65.66
70730;BME280;58315;53.336;55.932;2023-03-26T04:14:19;99672.56;;;5.80;65.94
70730;BME280;58315;53.336;55.932;2023-03-26T04:16:57;99676.66;;;6.10;65.43
70730;BME280;58315;53.336;55.932;2023-03-26T04:19:24;99660.47;;;6.29;65.11
70730;BME280;58315;53.336;55.932;2023-03-26T04:21:52;99665.88;;;6.39;64.21
70730;BME280;58315;53.336;55.932;2023-03-26T04:24:20;99663.72;;;6.20;63.87
70730;BME280;58315;53.336;55.932;2023-03-26T04:27:16;99666.84;;;6.25;64.07
70730;BME280;58315;53.336;55.932;2023-03-26T04:29:47;99661.31;;;6.17;64.44
70730;BME280;58315;53.336;55.932;2023-03-26T04:32:23;99656.28;;;6.26;64.71
70730;BME280;58315;53.336;55.932;2023-03-26T04:35:00;99657.50;;;6.34;64.60
70730;BME280;58315;53.336;55.932;2023-03-26T04:37:36;99651.91;;;6.51;64.03
70730;BME280;58315;53.336;55.932;2023-03-26T04:40:20;99665.13;;;6.73;63.56
70730;BME280;58315;53.336;55.932;2023-03-26T04:43:14;99663.09;;;7.01;63.13
70730;BME280;58315;53.336;55.932;2023-03-26T04:46:20;99664.06;;;7.00;62.53
70730;BME280;58315;53.336;55.932;2023-03-26T04:48:53;99670.53;;;6.83;62.65
70730;BME280;58315;53.336;55.932;2023-03-26T04:51:23;99665.13;;;6.73;62.68
70730;BME280;58315;53.336;55.932;2023-03-26T04:53:52;99661.47;;;6.39;63.40
70730;BME280;58315;53.336;55.932;2023-03-26T04:56:57;99652.25;;;6.34;63.95
70730;BME280;58315;53.336;55.932;2023-03-26T04:59:32;99646.47;;;6.04;64.59
70730;BME280;58315;53.336;55.932;2023-03-26T05:02:04;99658.97;;;6.25;64.77
70730;BME280;58315;53.336;55.932;2023-03-26T05:04:37;99644.25;;;6.35;64.08
70730;BME280;58315;53.336;55.932;2023-03-26T05:07:09;99645.91;;;6.49;63.74
70730;BME280;58315;53.336;55.932;2023-03-26T05:09:42;99644.78;;;6.64;63.62
70730;BME280;58315;53.336;55.932;2023-03-26T05:12:14;99666.81;;;6.74;63.32
70730;BME280;58315;53.336;55.932;2023-03-26T05:14:50;99652.06;;;6.85;63.03
70730;BME280;58315;53.336;55.932;2023-03-26T05:17:25;99649.47;;;6.96;62.96
70730;BME280;58315;53.336;55.932;2023-03-26T05:19:51;99651.91;;;7.10;62.26
70730;BME280;58315;53.336;55.932;2023-03-26T05:22:17;99659.59;;;7.24;62.21
70730;BME280;58315;53.336;55.932;2023-03-26T05:25:04;99661.16;;;7.38;61.69
70730;BME280;58315;53.336;55.932;2023-03-26T05:27:32;99664.16;;;7.34;61.54
70730;BME280;58315;53.336;55.932;2023-03-26T05:30:03;99659.84;;;7.33;61.48
70730;BME280;58315;53.336;55.932;2023-03-26T05:32:34;99659.88;;;7.09;61.37
70730;BME280;58315;53.336;55.932;2023-03-26T05:35:01;99651.31;;;7.07;61.88
70730;BME280;58315;53.336;55.932;2023-03-26T05:37:28;99659.47;;;6.91;61.96
70730;BME280;58315;53.336;55.932;2023-03-26T05:40:03;99652.56;;;7.01;62.55
70730;BME280;58315;53.336;55.932;2023-03-26T05:42:40;99661.78;;;6.95;62.15
70730;BME280;58315;53.336;55.932;2023-03-26T05:45:29;99658.53;;;6.92;62.16
70730;BME280;58315;53.336;55.932;2023-03-26T05:47:57;99659.84;;;6.97;62.65
70730;BME280;58315;53.336;55.932;2023-03-26T05:50:25;99663.94;;;7.01;62.39
70730;BME280;58315;53.336;55.932;2023-03-26T05:52:54;99657.78;;;7.14;62.10
70730;BME280;58315;53.336;55.932;2023-03-26T05:55:59;99650.34;;;7.08;61.76
70730;BME280;58315;53.336;55.932;2023-03-26T05:59:00;99654.41;;;7.12;61.91
70730;BME280;58315;53.336;55.932;2023-03-26T06:01:50;99651.06;;;7.10;61.82
70730;BME280;58315;53.336;55.932;2023-03-26T06:04:34;99653.94;;;7.07;61.86
70730;BME280;58315;53.336;55.932;2023-03-26T06:07:29;99659.75;;;6.99;62.03
70730;BME280;58315;53.336;55.932;2023-03-26T06:10:17;99669.47;;;7.10;61.90
70730;BME280;58315;53.336;55.932;2023-03-26T06:12:43;99665.09;;;7.21;62.08
70730;BME280;58315;53.336;55.932;2023-03-26T06:15:10;99674.53;;;7.24;61.85
70730;BME280;58315;53.336;55.932;2023-03-26T06:18:09;99666.25;;;7.17;62.08
70730;BME280;58315;53.336;55.932;2023-03-26T06:20:55;99678.25;;;7.33;61.86
70730;BME280;58315;53.336;55.932;2023-03-26T06:23:37;99665.88;;;7.46;61.51
70730;BME280;58315;53.336;55.932;2023-03-26T06:26:07;99673.78;;;7.57;60.98
70730;BME280;58315;53.336;55.932;2023-03-26T06:29:00;99681.31;;;7.73;60.97
70730;BME280;58315;53.336;55.932;2023-03-26T06:31:44;99668.78;;;7.88;60.63
70730;BME280;58315;53.336;55.932;2023-03-26T06:34:16;99682.53;;;7.91;60.47
70730;BME280;58315;53.336;55.932;2023-03-26T06:36:42;99674.88;;;8.00;60.30
70730;BME280;58315;53.336;55.932;2023-03-26T06:39:08;99674.88;;;8.11;60.03
70730;BME280;58315;53.336;55.932;2023-03-26T06:41:38;99664.91;;;8.26;60.03
70730;BME280;58315;53.336;55.932;2023-03-26T06:44:34;99667.31;;;8.29;59.31
70730;BME280;58315;53.336;55.932;2023-03-26T06:47:19;99665.06;;;8.24;59.38
70730;BME280;58315;53.336;55.932;2023-03-26T06:49:48;99673.06;;;8.34;59.53
70730;BME280;58315;53.336;55.932;2023-03-26T06:52:32;99671.97;;;8.36;59.14
70730;BME280;58315;53.336;55.932;2023-03-26T06:55:05;99672.94;;;8.35;59.21
70730;BME280;58315;53.336;55.932;2023-03-26T06:57:52;99661.34;;;8.49;58.67
70730;BME280;58315;53.336;55.932;2023-03-26T07:00:36;99667.69;;;8.47;59.21
70730;BME280;58315;53.336;55.932;2023-03-26T07:03:21;99663.09;;;8.60;58.76
70730;BME280;58315;53.336;55.932;2023-03-26T07:06:06;99657.88;;;8.49;58.74
70730;BME280;58315;53.336;55.932;2023-03-26T07:09:11;99654.56;;;8.67;58.74
70730;BME280;58315;53.336;55.932;2023-03-26T07:11:56;99651.69;;;8.71;58.43
70730;BME280;58315;53.336;55.932;2023-03-26T07:14:54;99651.66;;;8.82;58.33
70730;BME280;58315;53.336;55.932;2023-03-26T07:17:53;99649.66;;;8.95;58.16
70730;BME280;58315;53.336;55.932;2023-03-26T07:20:30;99653.22;;;9.05;57.92
70730;BME280;58315;53.336;55.932;2023-03-26T07:22:57;99653.94;;;9.07;57.47
70730;BME280;58315;53.336;55.932;2023-03-26T07:25:42;99653.16;;;9.16;57.92
70730;BME280;58315;53.336;55.932;2023-03-26T07:31:28;99641.81;;;9.68;56.68
70730;BME280;58315;53.336;55.932;2023-03-26T07:38:18;99661.28;;;10.28;56.18
70730;BME280;58315;53.336;55.932;2023-03-26T07:41:03;99645.31;;;10.39;56.08
70730;BME280;58315;53.336;55.932;2023-03-26T07:46:53;99659.50;;;10.07;55.89
70730;BME280;58315;53.336;55.932;2023-03-26T07:49:55;99643.25;;;10.12;56.57
70730;BME280;58315;53.336;55.932;2023-03-26T07:52:42;99640.91;;;10.19;55.97
70730;BME280;58315;53.336;55.932;2023-03-26T07:55:26;99638.19;;;10.30;55.97
70730;BME280;58315;53.336;55.932;2023-03-26T08:05:03;99636.63;;;10.18;55.97
70730;BME280;58315;53.336;55.932;2023-03-26T08:11:41;99628.69;;;10.18;55.74
70730;BME280;58315;53.336;55.932;2023-03-26T08:17:01;99642.59;;;10.20;55.27
70730;BME280;58315;53.336;55.932;2023-03-26T08:22:26;99634.09;;;10.16;55.46
70730;BME280;58315;53.336;55.932;2023-03-26T08:25:03;99647.81;;;10.00;55.71
70730;BME280;58315;53.336;55.932;2023-03-26T08:30:23;99661.41;;;9.96;56.25
70730;BME280;58315;53.336;55.932;2023-03-26T08:33:13;99650.28;;;10.02;55.72
70730;BME280;58315;53.336;55.932;2023-03-26T08:35:41;99655.56;;;9.92;55.88
70730;BME280;58315;53.336;55.932;2023-03-26T08:38:08;99654.16;;;9.88;55.80
70730;BME280;58315;53.336;55.932;2023-03-26T08:57:55;99649.72;;;9.88;55.89
70730;BME280;58315;53.336;55.932;2023-03-26T09:06:39;99633.81;;;10.19;54.87
70730;BME280;58315;53.336;55.932;2023-03-26T09:26:44;99651.66;;;10.86;54.07
70730;BME280;58315;53.336;55.932;2023-03-26T09:32:22;99648.03;;;10.88;53.96
70730;BME280;58315;53.336;55.932;2023-03-26T09:35:32;99633.81;;;10.98;53.55
70730;BME280;58315;53.336;55.932;2023-03-26T09:38:44;99635.75;;;10.96;53.73
70730;BME280;58315;53.336;55.932;2023-03-26T09:44:13;99647.97;;;11.36;52.98
70730;BME280;58315;53.336;55.932;2023-03-26T09:49:47;99643.78;;;11.53;52.60
70730;BME280;58315;53.336;55.932;2023-03-26T09:57:44;99638.44;;;11.63;52.44
70730;BME280;58315;53.336;55.932;2023-03-26T10:00:35;99638.34;;;11.54;52.55
70730;BME280;58315;53.336;55.932;2023-03-26T10:06:33;99654.81;;;11.48;53.18
70730;BME280;58315;53.336;55.932;2023-03-26T10:08:49;99654.38;;;11.43;52.94
70730;BME280;58315;53.336;55.932;2023-03-26T10:11:26;99648.13;;;11.25;53.24
70730;BME280;58315;53.336;55.932;2023-03-26T10:14:17;99637.66;;;11.52;52.92
70730;BME280;58315;53.336;55.932;2023-03-26T10:17:04;99638.63;;;11.51;52.76
70730;BME280;58315;53.336;55.932;2023-03-26T10:31:38;99656.63;;;11.38;52.95
70730;BME280;58315;53.336;55.932;2023-03-26T10:34:36;99661.03;;;11.47;52.90
70730;BME280;58315;53.336;55.932;2023-03-26T10:40:04;99663.91;;;11.73;52.51
70730;BME280;58315;53.336;55.932;2023-03-26T10:55:52;99666.22;;;11.29;53.14
70730;BME280;58315;53.336;55.932;2023-03-26T10:58:24;99660.53;;;11.34;53.08
70730;BME280;58315;53.336;55.932;2023-03-26T11:03:55;99659.81;;;11.32;52.89
70730;BME280;58315;53.336;55.932;2023-03-26T11:06:30;99647.84;;;11.38;52.98
70730;BME280;58315;53.336;55.932;2023-03-26T11:11:46;99651.88;;;11.22;53.08
70730;BME280;58315;53.336;55.932;2023-03-26T11:19:53;99667.22;;;11.38;52.90
70730;BME280;58315;53.336;55.932;2023-03-26T11:25:39;99667.47;;;11.45;53.04
70730;BME280;58315;53.336;55.932;2023-03-26T11:30:47;99656.63;;;11.38;53.00
70730;BME280;58315;53.336;55.932;2023-03-26T11:33:22;99655.47;;;11.41;52.65
70730;BME280;58315;53.336;55.932;2023-03-26T11:35:55;99671.38;;;11.31;52.95
70730;BME280;58315;53.336;55.932;2023-03-26T11:38:29;99664.84;;;11.25;52.84
70730;BME280;58315;53.336;55.932;2023-03-26T11:41:10;99665.81;;;11.15;53.26
70730;BME280;58315;53.336;55.932;2023-03-26T11:44:57;99669.44;;;11.23;53.28
70730;BME280;58315;53.336;55.932;2023-03-26T11:47:06;99678.78;;;11.27;53.24
70730;BME280;58315;53.336;55.932;2023-03-26T11:49:35;99686.81;;;11.26;53.06
70730;BME280;58315;53.336;55.932;2023-03-26T11:52:02;99674.47;;;11.17;53.49
70730;BME280;58315;53.336;55.932;2023-03-26T11:54:28;99674.72;;;11.14;53.40
70730;BME280;58315;53.336;55.932;2023-03-26T11:57:25;99671.53;;;11.20;53.27
70730;BME280;58315;53.336;55.932;2023-03-26T11:59:58;99673.91;;;11.13;53.50
70730;BME280;58315;53.336;55.932;2023-03-26T12:02:39;99673.19;;;11.11;53.67
70730;BME280;58315;53.336;55.932;2023-03-26T12:08:02;99676.94;;;11.18;53.40
70730;BME280;58315;53.336;55.932;2023-03-26T12:10:34;99672.50;;;10.99;53.61
70730;BME280;58315;53.336;55.932;2023-03-26T12:13:38;99670.56;;;11.01;53.93
70730;BME280;58315;53.336;55.932;2023-03-26T12:16:13;99669.31;;;11.05;53.64
70730;BME280;58315;53.336;55.932;2023-03-26T12:18:44;99662.47;;;10.93;53.73
70730;BME280;58315;53.336;55.932;2023-03-26T12:21:20;99673.63;;;11.06;53.71
70730;BME280;58315;53.336;55.932;2023-03-26T12:23:56;99665.00;;;11.04;53.94
70730;BME280;58315;53.336;55.932;2023-03-26T12:26:49;99661.94;;;11.09;53.45
70730;BME280;58315;53.336;55.932;2023-03-26T12:29:20;99665.69;;;11.06;53.86
70730;BME280;58315;53.336;55.932;2023-03-26T12:31:56;99661.94;;;11.09;53.35
70730;BME280;58315;53.336;55.932;2023-03-26T12:34:37;99656.78;;;11.07;53.86
70730;BME280;58315;53.336;55.932;2023-03-26T12:37:06;99654.72;;;11.01;53.84
70730;BME280;58315;53.336;55.932;2023-03-26T12:39:42;99650.53;;;11.08;53.54
70730;BME280;58315;53.336;55.932;2023-03-26T12:42:25;99646.47;;;11.14;53.50
70730;BME280;58315;53.336;55.932;2023-03-26T12:44:54;99641.06;;;10.86;53.72
70730;BME280;58315;53.336;55.932;2023-03-26T12:47:27;99641.34;;;10.83;54.40
70730;BME280;58315;53.336;55.932;2023-03-26T12:49:55;99632.00;;;10.70;54.52
70730;BME280;58315;53.336;55.932;2023-03-26T12:58:09;99637.44;;;11.07;53.89
70730;BME280;58315;53.336;55.932;2023-03-26T13:14:33;99618.22;;;10.47;54.95
70730;BME280;58315;53.336;55.932;2023-03-26T13:19:49;99621.25;;;10.32;55.02
70730;BME280;58315;53.336;55.932;2023-03-26T13:28:15;99635.72;;;10.28;55.37
70730;BME280;58315;53.336;55.932;2023-03-26T13:33:52;99629.13;;;10.23;55.16
70730;BME280;58315;53.336;55.932;2023-03-26T13:42:05;99629.13;;;10.23;55.49
70730;BME280;58315;53.336;55.932;2023-03-26T13:45:02;99628.13;;;10.24;55.40
70730;BME280;58315;53.336;55.932;2023-03-26T13:47:34;99635.03;;;10.36;55.63
70730;BME280;58315;53.336;55.932;2023-03-26T13:53:09;99644.56;;;10.27;55.14
70730;BME280;58315;53.336;55.932;2023-03-26T13:55:42;99647.59;;;10.23;55.73
70730;BME280;58315;53.336;55.932;2023-03-26T14:01:08;99636.19;;;10.22;55.58
70730;BME280;58315;53.336;55.932;2023-03-26T14:03:57;99635.91;;;10.15;55.98
70730;BME280;58315;53.336;55.932;2023-03-26T14:06:42;99638.19;;;10.30;55.78
70730;BME280;58315;53.336;55.932;2023-03-26T14:09:14;99641.84;;;10.38;55.30
70730;BME280;58315;53.336;55.932;2023-03-26T14:14:36;99643.09;;;10.44;55.17
70730;BME280;58315;53.336;55.932;2023-03-26T14:17:15;99648.50;;;10.33;55.16
70730;BME280;58315;53.336;55.932;2023-03-26T14:19:58;99644.19;;;10.32;54.78
70730;BME280;58315;53.336;55.932;2023-03-26T14:34:21;99651.88;;;9.83;55.62
70730;BME280;58315;53.336;55.932;2023-03-26T14:39:56;99659.03;;;9.93;55.48
70730;BME280;58315;53.336;55.932;2023-03-26T14:42:40;99657.94;;;9.95;55.69
70730;BME280;58315;53.336;55.932;2023-03-26T14:51:00;99651.72;;;9.75;56.41
70730;BME280;58315;53.336;55.932;2023-03-26T14:53:43;99659.53;;;9.77;56.10
70730;BME280;58315;53.336;55.932;2023-03-26T15:07:35;99657.91;;;9.64;56.94
70730;BME280;58315;53.336;55.932;2023-03-26T15:13:06;99663.97;;;9.76;56.74
70730;BME280;58315;53.336;55.932;2023-03-26T15:22:15;99670.66;;;9.59;56.29
70730;BME280;58315;53.336;55.932;2023-03-26T15:33:31;99662.81;;;9.69;56.66
70730;BME280;58315;53.336;55.932;2023-03-26T15:57:46;99656.41;;;9.62;56.89
70730;BME280;58315;53.336;55.932;2023-03-26T16:00:24;99657.91;;;9.64;57.16
70730;BME280;58315;53.336;55.932;2023-03-26T16:03:09;99659.59;;;9.65;56.85
70730;BME280;58315;53.336;55.932;2023-03-26T16:08:55;99646.22;;;9.57;56.73
70730;BME280;58315;53.336;55.932;2023-03-26T16:14:45;99643.97;;;9.32;57.57
70730;BME280;58315;53.336;55.932;2023-03-26T16:17:21;99650.72;;;9.25;57.27
70730;BME280;58315;53.336;55.932;2023-03-26T16:19:57;99646.47;;;9.12;57.57
70730;BME280;58315;53.336;55.932;2023-03-26T16:22:37;99645.97;;;9.18;57.66
70730;BME280;58315;53.336;55.932;2023-03-26T16:36:34;99640.72;;;9.18;57.32
70730;BME280;58315;53.336;55.932;2023-03-26T16:41:54;99635.09;;;9.12;57.85
70730;BME280;58315;53.336;55.932;2023-03-26T16:44:40;99633.88;;;9.16;57.87
70730;BME280;58315;53.336;55.932;2023-03-26T16:52:21;99639.53;;;9.11;57.89
70730;BME280;58315;53.336;55.932;2023-03-26T16:55:00;99638.44;;;9.14;58.24
70730;BME280;58315;53.336;55.932;2023-03-26T16:57:46;99640.72;;;9.18;57.57
70730;BME280;58315;53.336;55.932;2023-03-26T17:14:16;99639.47;;;9.23;57.67
70730;BME280;58315;53.336;55.932;2023-03-26T17:16:49;99636.53;;;9.16;57.44
70730;BME280;58315;53.336;55.932;2023-03-26T17:25:36;99633.69;;;9.08;58.09
70730;BME280;58315;53.336;55.932;2023-03-26T17:31:51;99632.91;;;9.17;57.91
70730;BME280;58315;53.336;55.932;2023-03-26T17:34:53;99634.59;;;9.18;57.66
70730;BME280;58315;53.336;55.932;2023-03-26T17:42:37;99634.34;;;9.00;57.98
70730;BME280;58315;53.336;55.932;2023-03-26T17:45:19;99631.63;;;9.11;57.46
70730;BME280;58315;53.336;55.932;2023-03-26T17:48:17;99638.38;;;9.04;57.92
70730;BME280;58315;53.336;55.932;2023-03-26T17:50:58;99636.19;;;9.09;58.04
70730;BME280;58315;53.336;55.932;2023-03-26T17:53:32;99638.25;;;9.06;57.72
70730;BME280;58315;53.336;55.932;2023-03-26T17:56:03;99635.03;;;9.02;57.84
70730;BME280;58315;53.336;55.932;2023-03-26T17:58:51;99632.88;;;9.07;57.50
70730;BME280;58315;53.336;55.932;2023-03-26T18:01:33;99637.16;;;9.08;57.91
70730;BME280;58315;53.336;55.932;2023-03-26T18:04:02;99634.34;;;9.00;58.07
70730;BME280;58315;53.336;55.932;2023-03-26T18:09:24;99629.25;;;9.08;58.05
70730;BME280;58315;53.336;55.932;2023-03-26T18:17:20;99625.00;;;8.96;58.28
70730;BME280;58315;53.336;55.932;2023-03-26T18:19:48;99621.41;;;8.97;58.20
70730;BME280;58315;53.336;55.932;2023-03-26T18:22:19;99626.44;;;9.00;58.11
70730;BME280;58315;53.336;55.932;2023-03-26T18:24:47;99626.69;;;8.97;57.87
70730;BME280;58315;53.336;55.932;2023-03-26T18:27:17;99631.94;;;8.97;57.95
70730;BME280;58315;53.336;55.932;2023-03-26T18:29:56;99619.50;;;8.88;58.01
70730;BME280;58315;53.336;55.932;2023-03-26T18:32:25;99622.72;;;8.91;57.91
70730;BME280;58315;53.336;55.932;2023-03-26T18:34:59;99622.38;;;8.96;57.93
70730;BME280;58315;53.336;55.932;2023-03-26T18:37:32;99619.03;;;8.94;57.75
70730;BME280;58315;53.336;55.932;2023-03-26T18:40:13;99625.00;;;8.96;58.01
70730;BME280;58315;53.336;55.932;2023-03-26T18:42:52;99621.06;;;8.90;58.17
70730;BME280;58315;53.336;55.932;2023-03-26T18:45:28;99621.31;;;8.87;58.29
70730;BME280;58315;53.336;55.932;2023-03-26T18:47:59;99620.97;;;8.81;58.35
70730;BME280;58315;53.336;55.932;2023-03-26T18:50:28;99614.25;;;8.88;58.02
70730;BME280;58315;53.336;55.932;2023-03-26T18:53:02;99612.63;;;8.76;58.49
70730;BME280;58315;53.336;55.932;2023-03-26T18:55:29;99612.38;;;8.79;58.63
70730;BME280;58315;53.336;55.932;2023-03-26T18:57:58;99612.44;;;8.67;58.61
70730;BME280;58315;53.336;55.932;2023-03-26T19:00:27;99615.56;;;8.61;58.68
70730;BME280;58315;53.336;55.932;2023-03-26T19:03:05;99610.50;;;8.69;58.76
70730;BME280;58315;53.336;55.932;2023-03-26T19:05:33;99615.41;;;8.74;58.61
70730;BME280;58315;53.336;55.932;2023-03-26T19:08:04;99618.97;;;8.73;58.35
70730;BME280;58315;53.336;55.932;2023-03-26T19:10:31;99616.03;;;8.55;58.86
70730;BME280;58315;53.336;55.932;2023-03-26T19:13:00;99618.69;;;8.55;58.83
70730;BME280;58315;53.336;55.932;2023-03-26T19:15:29;99618.09;;;8.52;58.98